Time;durP1;ratioP1;P1;durP2;ratioP2;P2;SDS_P1;SDS_P2;PMS_P1;PMS_P2;Temp;Humidity;BMP_temperature;BMP_pressure;BME280_temperature;BME280_humidity;BME280_pressure;Samples;Min_cycle;Max_cycle;Signal;HPM_P1;HPM_P2
2021/05/07 00:01:32;;;;;;;3.08;0.43;;;13.10;62.60;;;;;;5006636;28;20034;-79
2021/05/07 00:03:58;;;;;;;0.13;0.00;;;13.10;62.60;;;;;;5009020;28;20049;-78
2021/05/07 00:06:24;;;;;;;0.30;0.03;;;13.10;62.60;;;;;;5010032;28;20022;-79
2021/05/07 00:08:50;;;;;;;0.38;0.17;;;13.10;62.60;;;;;;5038953;28;20387;-79
2021/05/07 00:11:19;;;;;;;0.20;0.20;;;13.10;62.60;;;;;;5008368;28;20045;-78
2021/05/07 00:13:47;;;;;;;0.35;0.00;;;13.10;62.70;;;;;;4991585;28;20507;-79
2021/05/07 00:16:13;;;;;;;0.22;0.10;;;13.10;62.80;;;;;;5008307;28;20041;-78
2021/05/07 00:18:39;;;;;;;0.13;0.00;;;13.00;62.80;;;;;;5008393;28;20045;-78
2021/05/07 00:21:06;;;;;;;1.08;0.20;;;13.00;62.90;;;;;;5011613;28;20372;-79
2021/05/07 00:23:32;;;;;;;0.93;0.20;;;13.00;63.00;;;;;;5025406;28;20498;-78
2021/05/07 00:25:59;;;;;;;0.40;0.20;;;13.00;63.00;;;;;;4993223;28;20541;-78
2021/05/07 00:28:25;;;;;;;0.28;0.10;;;13.00;63.00;;;;;;5033303;28;20038;-78
2021/05/07 00:30:51;;;;;;;0.73;0.10;;;13.00;63.00;;;;;;5013064;28;20034;-79
2021/05/07 00:33:17;;;;;;;0.40;0.10;;;13.10;63.00;;;;;;4979555;28;20048;-78
2021/05/07 00:35:43;;;;;;;0.10;0.00;;;13.10;63.00;;;;;;5025877;28;20030;-78
2021/05/07 00:38:09;;;;;;;0.80;0.20;;;13.10;63.00;;;;;;5011770;28;20471;-78
2021/05/07 00:40:37;;;;;;;0.25;0.03;;;13.00;63.00;;;;;;5011805;28;20045;-78
2021/05/07 00:43:03;;;;;;;1.05;0.30;;;13.00;63.10;;;;;;5011892;28;20045;-80
2021/05/07 00:45:29;;;;;;;0.45;0.00;;;13.10;63.30;;;;;;4984556;28;20038;-80
2021/05/07 00:48:12;;;;;;;0.50;0.10;;;13.00;63.30;;;;;;4997028;28;20034;-80
2021/05/07 00:50:39;;;;;;;0.77;0.08;;;13.00;63.30;;;;;;5013731;28;20049;-80
2021/05/07 00:53:05;;;;;;;1.20;0.20;;;13.00;63.30;;;;;;5012474;28;20056;-81
2021/05/07 00:55:32;;;;;;;0.00;0.00;;;13.00;63.30;;;;;;5012223;28;20295;-78
2021/05/07 00:57:58;;;;;;;0.30;0.13;;;13.00;63.40;;;;;;5011695;28;20440;-80
2021/05/07 01:00:25;;;;;;;0.05;0.00;;;13.00;63.40;;;;;;4994875;28;20110;-80
2021/05/07 01:02:51;;;;;;;0.52;0.22;;;13.00;63.50;;;;;;5008878;28;20493;-80
2021/05/07 01:05:18;;;;;;;0.50;0.30;;;12.90;63.50;;;;;;5009861;28;20022;-79
2021/05/07 01:07:44;;;;;;;0.75;0.43;;;12.90;63.60;;;;;;5010479;28;20030;-80
2021/05/07 01:10:13;;;;;;;0.40;0.00;;;12.90;63.60;;;;;;4993326;28;20037;-80
2021/05/07 01:12:40;;;;;;;0.20;0.10;;;12.90;63.70;;;;;;5009812;28;20033;-80
2021/05/07 01:15:13;;;;;;;0.47;0.17;;;12.90;63.70;;;;;;5011322;28;20033;-79
2021/05/07 01:17:42;;;;;;;0.35;0.00;;;12.90;63.70;;;;;;5011468;28;20030;-80
2021/05/07 01:20:19;;;;;;;0.30;0.10;;;12.90;63.60;;;;;;5009615;28;20050;-80
2021/05/07 01:22:47;;;;;;;0.20;0.10;;;12.90;63.70;;;;;;4993404;28;20025;-79
2021/05/07 01:25:15;;;;;;;2.05;0.63;;;12.90;63.60;;;;;;4993264;28;20046;-80
2021/05/07 01:27:42;;;;;;;0.28;0.00;;;12.90;63.70;;;;;;5009748;28;20022;-79
2021/05/07 01:30:14;;;;;;;0.30;0.10;;;12.90;63.70;;;;;;4994408;28;20036;-79
2021/05/07 01:32:40;;;;;;;0.00;0.00;;;12.80;63.90;;;;;;5011750;28;20022;-80
2021/05/07 01:35:13;;;;;;;0.20;0.00;;;12.70;64.00;;;;;;5010177;28;20034;-80
2021/05/07 01:37:42;;;;;;;1.08;0.20;;;12.60;64.20;;;;;;4993572;28;20386;-80
2021/05/07 01:40:22;;;;;;;0.00;0.00;;;12.60;64.40;;;;;;4996093;28;20161;-80
2021/05/07 01:42:48;;;;;;;0.52;0.20;;;12.50;64.50;;;;;;5010775;28;20030;-80
2021/05/07 01:45:15;;;;;;;0.30;0.20;;;12.40;64.60;;;;;;4994069;28;20042;-79
2021/05/07 01:47:42;;;;;;;0.20;0.10;;;12.30;64.70;;;;;;5041371;28;20376;-80
2021/05/07 01:50:09;;;;;;;0.30;0.10;;;12.30;64.80;;;;;;5009748;28;20509;-80
2021/05/07 01:52:35;;;;;;;0.40;0.20;;;12.20;64.70;;;;;;5019517;28;20042;-80
2021/05/07 01:55:02;;;;;;;0.25;0.10;;;12.20;64.80;;;;;;4998499;28;20360;-80
2021/05/07 01:57:30;;;;;;;0.40;0.20;;;12.20;64.80;;;;;;5009503;28;20141;-80
2021/05/07 01:59:56;;;;;;;0.65;0.22;;;12.10;64.80;;;;;;5011722;28;20061;-79
2021/05/07 02:02:22;;;;;;;0.30;0.15;;;12.10;65.60;;;;;;5007634;28;20049;-79
2021/05/07 02:04:48;;;;;;;0.05;0.00;;;12.10;64.80;;;;;;5006072;28;20034;-79
2021/05/07 02:07:15;;;;;;;0.38;0.22;;;12.10;64.70;;;;;;4982937;28;20037;-79
2021/05/07 02:09:41;;;;;;;0.80;0.55;;;12.00;64.70;;;;;;5010880;28;20479;-80
2021/05/07 02:12:07;;;;;;;0.80;0.25;;;12.00;64.80;;;;;;4996086;28;20065;-80
2021/05/07 02:14:33;;;;;;;1.23;0.30;;;12.00;64.80;;;;;;5042833;28;20045;-79
2021/05/07 02:17:01;;;;;;;1.75;0.10;;;12.00;64.70;;;;;;5010325;28;20048;-80
2021/05/07 02:19:27;;;;;;;0.20;0.10;;;12.00;64.70;;;;;;5009661;28;20034;-80
2021/05/07 02:21:53;;;;;;;0.10;0.00;;;12.00;64.70;;;;;;5042504;28;20037;-80
2021/05/07 02:24:19;;;;;;;2.95;0.45;;;12.00;64.70;;;;;;5018886;28;20033;-80
2021/05/07 02:26:45;;;;;;;2.10;0.20;;;11.90;64.70;;;;;;5005837;28;20032;-80
2021/05/07 02:29:11;;;;;;;0.88;0.35;;;11.90;64.70;;;;;;5042399;28;20052;-80
2021/05/07 02:31:37;;;;;;;1.10;0.22;;;11.80;64.60;;;;;;5036459;28;20038;-80
2021/05/07 02:34:04;;;;;;;0.35;0.22;;;11.80;64.80;;;;;;4998259;28;20311;-80
2021/05/07 02:36:30;;;;;;;2.45;0.28;;;11.80;64.90;;;;;;5026013;28;20052;-80
2021/05/07 02:38:56;;;;;;;0.20;0.03;;;11.70;64.80;;;;;;5006980;28;20050;-80
2021/05/07 02:41:22;;;;;;;0.15;0.05;;;11.70;64.80;;;;;;5005942;28;20042;-80
2021/05/07 02:43:48;;;;;;;0.70;0.35;;;11.70;65.50;;;;;;5009785;28;20041;-79
2021/05/07 02:46:15;;;;;;;0.20;0.15;;;11.70;64.70;;;;;;5010301;28;20041;-80
2021/05/07 02:48:41;;;;;;;0.73;0.10;;;11.80;64.60;;;;;;5009810;28;20041;-80
2021/05/07 02:51:07;;;;;;;1.13;0.40;;;11.80;64.60;;;;;;4993864;28;20041;-80
2021/05/07 02:53:33;;;;;;;2.47;1.02;;;11.70;64.50;;;;;;5012245;28;20052;-80
2021/05/07 02:55:59;;;;;;;0.80;0.30;;;11.70;64.50;;;;;;5010646;28;20034;-80
2021/05/07 02:58:25;;;;;;;0.25;0.13;;;11.80;64.60;;;;;;4991286;28;20042;-79
2021/05/07 03:00:51;;;;;;;25.08;0.57;;;11.80;64.60;;;;;;5008658;28;20065;-80
2021/05/07 03:03:17;;;;;;;0.60;0.22;;;11.80;64.60;;;;;;5010035;28;20026;-79
2021/05/07 03:05:43;;;;;;;3.05;0.75;;;11.80;64.60;;;;;;5039976;28;20513;-79
2021/05/07 03:08:10;;;;;;;0.65;0.08;;;11.70;64.50;;;;;;5008812;28;20045;-79
2021/05/07 03:10:36;;;;;;;0.25;0.10;;;11.70;64.50;;;;;;5009048;28;20037;-80
2021/05/07 03:13:02;;;;;;;0.70;0.20;;;11.70;64.50;;;;;;5010179;28;20033;-80
2021/05/07 03:15:29;;;;;;;2.58;0.60;;;11.60;64.50;;;;;;5010162;28;20034;-79
2021/05/07 03:17:55;;;;;;;0.73;0.40;;;11.60;64.40;;;;;;5011492;28;20033;-79
2021/05/07 03:20:22;;;;;;;0.52;0.00;;;11.60;64.60;;;;;;5036997;28;20049;-80
2021/05/07 03:22:48;;;;;;;0.90;0.17;;;11.50;64.70;;;;;;5009382;28;20030;-79
2021/05/07 03:25:15;;;;;;;0.57;0.17;;;11.50;64.70;;;;;;4992413;28;20048;-80
2021/05/07 03:27:41;;;;;;;0.82;0.35;;;11.50;64.70;;;;;;5009219;28;20030;-79
2021/05/07 03:30:07;;;;;;;0.52;0.20;;;11.50;64.80;;;;;;4992920;28;20034;-80
2021/05/07 03:32:33;;;;;;;1.98;0.40;;;11.50;64.70;;;;;;5011612;28;20033;-80
2021/05/07 03:34:59;;;;;;;2.00;0.47;;;11.50;64.70;;;;;;5007840;28;20057;-80
2021/05/07 03:37:25;;;;;;;0.45;0.10;;;11.50;64.70;;;;;;5007533;28;20022;-80
2021/05/07 03:39:52;;;;;;;1.55;0.32;;;11.50;64.60;;;;;;5008388;28;20426;-83
2021/05/07 03:42:18;;;;;;;1.17;0.20;;;11.50;64.60;;;;;;5009672;28;20034;-81
2021/05/07 03:44:44;;;;;;;0.50;0.17;;;11.60;64.50;;;;;;5006300;28;20038;-80
2021/05/07 03:47:10;;;;;;;3.45;1.20;;;11.60;64.50;;;;;;5008525;28;20034;-79
2021/05/07 03:49:36;;;;;;;1.20;0.60;;;11.60;64.50;;;;;;5008305;28;20670;-78
2021/05/07 03:52:02;;;;;;;0.60;0.28;;;11.50;64.60;;;;;;5009842;28;20040;-79
2021/05/07 03:54:28;;;;;;;0.55;0.30;;;11.50;64.70;;;;;;5008809;28;20046;-78
2021/05/07 03:56:54;;;;;;;0.77;0.30;;;11.40;64.70;;;;;;4997812;28;20030;-80
2021/05/07 03:59:21;;;;;;;1.10;0.50;;;11.40;64.80;;;;;;5012301;28;20046;-79
2021/05/07 04:01:47;;;;;;;0.22;0.20;;;11.40;64.80;;;;;;5007590;28;20041;-81
2021/05/07 04:04:13;;;;;;;1.08;0.65;;;11.40;64.80;;;;;;5009685;28;20064;-80
2021/05/07 04:06:39;;;;;;;0.80;0.43;;;11.40;64.80;;;;;;5010093;28;20031;-81
2021/05/07 04:11:49;;;;;;;0.13;0.10;;;11.40;64.80;;;;;;5042136;28;20030;-81
2021/05/07 04:14:16;;;;;;;0.47;0.20;;;11.40;64.90;;;;;;4996073;28;20054;-80
2021/05/07 04:16:42;;;;;;;0.82;0.57;;;11.30;64.90;;;;;;5035174;28;20483;-81
2021/05/07 04:19:08;;;;;;;1.10;0.35;;;11.30;64.90;;;;;;5013424;28;20044;-80
2021/05/07 04:21:34;;;;;;;0.75;0.10;;;11.30;65.00;;;;;;5012495;28;20331;-80
2021/05/07 04:24:00;;;;;;;2.30;0.35;;;11.30;65.10;;;;;;5014819;28;20030;-80
2021/05/07 04:26:26;;;;;;;2.38;0.20;;;11.30;65.10;;;;;;5013906;28;20486;-80
2021/05/07 04:28:52;;;;;;;0.95;0.60;;;11.30;65.10;;;;;;5010434;28;20033;-80
2021/05/07 04:31:18;;;;;;;0.38;0.15;;;11.30;65.20;;;;;;5010725;28;20046;-81
2021/05/07 04:33:44;;;;;;;2.08;0.25;;;11.20;65.10;;;;;;5016216;28;20042;-80
2021/05/07 04:36:10;;;;;;;0.52;0.30;;;11.20;65.10;;;;;;5012480;28;20026;-80
2021/05/07 04:38:37;;;;;;;0.38;0.15;;;11.20;65.20;;;;;;5013233;28;20418;-80
2021/05/07 04:41:03;;;;;;;1.73;0.60;;;11.20;65.20;;;;;;4994014;28;20434;-81
2021/05/07 04:43:29;;;;;;;0.95;0.52;;;11.20;65.20;;;;;;4990095;28;20034;-80
2021/05/07 04:45:55;;;;;;;1.50;0.50;;;11.10;65.20;;;;;;5028792;28;20042;-80
2021/05/07 04:48:22;;;;;;;1.90;0.47;;;11.10;65.30;;;;;;5044837;28;20363;-80
2021/05/07 04:50:48;;;;;;;1.98;0.55;;;11.10;65.30;;;;;;5025619;28;20041;-80
2021/05/07 04:53:14;;;;;;;1.83;0.60;;;11.10;65.30;;;;;;5012888;28;20422;-80
2021/05/07 04:55:40;;;;;;;1.02;0.45;;;11.10;65.30;;;;;;5011476;28;20032;-81
2021/05/07 04:58:06;;;;;;;1.00;0.60;;;11.10;65.40;;;;;;5012554;28;20030;-80
2021/05/07 05:00:32;;;;;;;0.47;0.30;;;11.10;65.40;;;;;;5013336;28;20061;-80
2021/05/07 05:02:58;;;;;;;0.82;0.10;;;11.00;65.40;;;;;;5013855;28;20041;-80
2021/05/07 05:05:24;;;;;;;0.98;0.43;;;11.00;65.40;;;;;;5013174;28;20505;-80
2021/05/07 05:07:52;;;;;;;3.35;0.43;;;11.10;65.50;;;;;;4992264;28;20041;-80
2021/05/07 05:10:19;;;;;;;1.40;0.68;;;11.00;65.40;;;;;;5014273;28;20734;-80
2021/05/07 05:12:45;;;;;;;0.90;0.50;;;11.00;65.40;;;;;;5012558;28;20029;-80
2021/05/07 05:15:11;;;;;;;0.73;0.50;;;11.10;65.50;;;;;;4977201;28;20046;-80
2021/05/07 05:17:38;;;;;;;0.32;0.13;;;11.00;65.40;;;;;;5018135;28;20482;-81
2021/05/07 05:20:05;;;;;;;1.90;0.40;;;11.00;66.10;;;;;;5007381;28;20045;-80
2021/05/07 05:22:31;;;;;;;0.93;0.40;;;11.10;65.30;;;;;;5012544;28;20036;-80
2021/05/07 05:24:57;;;;;;;4.40;0.65;;;11.30;65.30;;;;;;5011016;28;20494;-80
2021/05/07 05:27:24;;;;;;;0.55;0.30;;;11.50;64.90;;;;;;5012131;28;20050;-80
2021/05/07 05:29:50;;;;;;;0.15;0.00;;;11.80;64.60;;;;;;5013970;28;20030;-81
2021/05/07 05:32:16;;;;;;;0.90;0.47;;;12.10;64.00;;;;;;5010027;28;20071;-81
2021/05/07 05:34:42;;;;;;;0.70;0.30;;;12.50;63.50;;;;;;5010983;28;20398;-80
2021/05/07 05:37:08;;;;;;;0.93;0.40;;;12.80;63.00;;;;;;5010954;28;20395;-81
2021/05/07 05:39:34;;;;;;;0.75;0.30;;;13.10;62.60;;;;;;5010477;28;20034;-81
2021/05/07 05:42:00;;;;;;;0.75;0.25;;;13.30;62.20;;;;;;5011717;28;20379;-81
2021/05/07 05:44:26;;;;;;;2.47;0.10;;;13.60;61.90;;;;;;5006355;28;20034;-81
2021/05/07 05:46:52;;;;;;;1.23;0.30;;;13.80;61.70;;;;;;5009996;28;20034;-81
2021/05/07 05:49:19;;;;;;;4.35;0.60;;;14.00;61.40;;;;;;4995175;28;20045;-81
2021/05/07 05:51:45;;;;;;;0.40;0.13;;;14.20;61.10;;;;;;5012317;28;20045;-81
2021/05/07 05:54:11;;;;;;;0.40;0.22;;;14.40;60.90;;;;;;5011629;28;20395;-81
2021/05/07 05:56:39;;;;;;;0.88;0.50;;;14.50;60.70;;;;;;5013435;28;20034;-82
2021/05/07 05:59:05;;;;;;;0.65;0.30;;;14.60;60.50;;;;;;5010273;28;20181;-81
2021/05/07 06:01:31;;;;;;;2.15;0.45;;;14.80;60.40;;;;;;5010883;28;20046;-81
2021/05/07 06:03:57;;;;;;;0.68;0.30;;;14.90;60.30;;;;;;5010380;28;20030;-81
2021/05/07 06:06:23;;;;;;;0.93;0.30;;;14.90;60.20;;;;;;4994344;28;20045;-81
2021/05/07 06:08:49;;;;;;;1.63;0.80;;;15.00;60.20;;;;;;5013206;28;20465;-80
2021/05/07 06:11:15;;;;;;;1.40;0.47;;;15.00;60.30;;;;;;5011097;28;20038;-81
2021/05/07 06:13:41;;;;;;;0.70;0.15;;;15.00;60.30;;;;;;5010129;28;20022;-81
2021/05/07 06:16:07;;;;;;;4.85;0.70;;;15.10;60.40;;;;;;5009688;28;20030;-81
2021/05/07 06:18:33;;;;;;;0.95;0.22;;;15.10;60.20;;;;;;4991021;28;20018;-81
2021/05/07 06:20:59;;;;;;;2.28;0.60;;;15.10;60.40;;;;;;5011052;28;20049;-81
2021/05/07 06:23:25;;;;;;;1.70;0.60;;;15.00;60.50;;;;;;5000182;28;20475;-81
2021/05/07 06:25:51;;;;;;;0.50;0.28;;;15.10;60.40;;;;;;5009946;28;20042;-82
2021/05/07 06:28:18;;;;;;;1.13;0.28;;;15.30;60.30;;;;;;5002976;28;20475;-81
2021/05/07 06:30:45;;;;;;;1.48;0.50;;;15.50;60.00;;;;;;5009734;28;20068;-81
2021/05/07 06:33:11;;;;;;;0.98;0.68;;;15.60;59.60;;;;;;5010982;28;20061;-82
2021/05/07 06:35:37;;;;;;;0.38;0.20;;;15.80;59.40;;;;;;5010891;28;20034;-81
2021/05/07 06:38:09;;;;;;;1.35;0.32;;;15.80;59.20;;;;;;4991145;28;20058;-82
2021/05/07 06:40:36;;;;;;;1.13;0.52;;;15.80;59.80;;;;;;5015029;28;20058;-82
2021/05/07 06:43:03;;;;;;;1.67;0.60;;;15.70;59.40;;;;;;5009153;28;20036;-82
2021/05/07 06:45:29;;;;;;;7.65;0.32;;;15.70;59.40;;;;;;5010112;28;20042;-82
2021/05/07 06:47:55;;;;;;;0.85;0.30;;;15.70;59.30;;;;;;5011281;28;20502;-83
2021/05/07 06:50:21;;;;;;;1.48;0.30;;;15.80;59.20;;;;;;5009147;28;20029;-81
2021/05/07 06:52:48;;;;;;;0.30;0.10;;;15.90;59.10;;;;;;5004958;28;20050;-81
2021/05/07 06:55:14;;;;;;;0.20;0.10;;;15.90;58.90;;;;;;5010194;28;20497;-81
2021/05/07 06:57:40;;;;;;;2.13;0.20;;;16.00;58.80;;;;;;5009638;28;20029;-81
2021/05/07 07:00:07;;;;;;;0.93;0.40;;;16.00;58.70;;;;;;4990517;28;20050;-80
2021/05/07 07:02:34;;;;;;;0.80;0.20;;;15.90;58.60;;;;;;5028603;28;20493;-80
2021/05/07 07:05:00;;;;;;;0.43;0.17;;;16.00;58.60;;;;;;5006803;28;20482;-79
2021/05/07 07:07:27;;;;;;;1.17;0.50;;;16.00;58.40;;;;;;5008163;28;20533;-80
2021/05/07 07:09:53;;;;;;;4.65;0.28;;;16.00;58.80;;;;;;5008654;28;20494;-82
2021/05/07 07:12:19;;;;;;;0.40;0.30;;;16.10;58.10;;;;;;5006313;28;20406;-79
2021/05/07 07:14:45;;;;;;;0.73;0.20;;;16.20;58.00;;;;;;5006906;28;20046;-83
2021/05/07 07:17:12;;;;;;;9.65;0.52;;;16.30;57.90;;;;;;4991535;28;20044;-84
2021/05/07 07:19:38;;;;;;;0.20;0.10;;;16.40;57.80;;;;;;5005244;28;20037;-82
2021/05/07 07:22:04;;;;;;;1.00;0.17;;;16.50;57.50;;;;;;5009814;28;20419;-82
2021/05/07 07:24:30;;;;;;;3.03;0.30;;;16.70;57.00;;;;;;5000365;28;20565;-81
2021/05/07 07:26:56;;;;;;;0.38;0.20;;;16.70;56.40;;;;;;4997655;28;20042;-79
2021/05/07 07:29:23;;;;;;;0.28;0.17;;;16.60;56.40;;;;;;4999502;28;20476;-82
2021/05/07 07:31:50;;;;;;;0.17;0.10;;;16.60;56.40;;;;;;5010906;28;20038;-81
2021/05/07 07:34:16;;;;;;;0.28;0.10;;;16.60;56.20;;;;;;5010523;28;20030;-82
2021/05/07 07:36:42;;;;;;;1.35;0.10;;;16.60;56.10;;;;;;5002560;28;20038;-82
2021/05/07 07:39:08;;;;;;;0.40;0.20;;;16.60;56.00;;;;;;5046663;28;20483;-82
2021/05/07 07:41:34;;;;;;;2.58;0.08;;;16.70;55.90;;;;;;5019912;28;20047;-88
2021/05/07 07:44:01;;;;;;;2.35;0.05;;;16.80;55.80;;;;;;5007405;28;20037;-82
2021/05/07 07:46:28;;;;;;;0.32;0.10;;;16.90;55.50;;;;;;5010446;28;20034;-80
2021/05/07 07:48:54;;;;;;;0.43;0.20;;;17.00;55.10;;;;;;5011274;28;20038;-80
2021/05/07 07:51:20;;;;;;;0.40;0.08;;;16.90;55.00;;;;;;5014222;28;20048;-80
2021/05/07 07:53:46;;;;;;;5.03;0.25;;;16.90;55.00;;;;;;5009509;28;20061;-80
2021/05/07 07:56:12;;;;;;;2.05;0.20;;;16.90;54.70;;;;;;5012476;28;20594;-80
2021/05/07 07:58:38;;;;;;;0.10;0.00;;;16.90;54.60;;;;;;5009733;28;20030;-82
2021/05/07 08:01:05;;;;;;;0.47;0.10;;;17.00;54.30;;;;;;4989764;28;20050;-82
2021/05/07 08:03:31;;;;;;;0.10;0.00;;;17.00;54.20;;;;;;5011634;28;20042;-81
2021/05/07 08:05:57;;;;;;;0.32;0.10;;;17.20;54.00;;;;;;5014256;28;20486;-82
2021/05/07 08:08:23;;;;;;;0.20;0.05;;;17.30;53.70;;;;;;5003422;28;20126;-82
2021/05/07 08:10:50;;;;;;;0.20;0.10;;;17.40;53.40;;;;;;5019003;28;20030;-82
2021/05/07 08:13:16;;;;;;;0.38;0.03;;;17.40;52.80;;;;;;5003637;28;20037;-82
2021/05/07 08:15:42;;;;;;;0.77;0.08;;;17.30;52.60;;;;;;5001233;28;20026;-82
2021/05/07 08:18:08;;;;;;;0.00;0.00;;;17.30;52.70;;;;;;4978997;28;20042;-82
2021/05/07 08:20:34;;;;;;;0.20;0.08;;;17.20;52.40;;;;;;5014520;28;20053;-82
2021/05/07 08:23:01;;;;;;;0.40;0.10;;;17.20;52.30;;;;;;4995299;28;20509;-82
2021/05/07 08:25:27;;;;;;;0.10;0.00;;;17.20;52.40;;;;;;5010732;28;20026;-82
2021/05/07 08:27:53;;;;;;;0.10;0.10;;;17.30;52.00;;;;;;5012268;28;20033;-82
2021/05/07 08:30:19;;;;;;;0.00;0.00;;;17.20;51.70;;;;;;4995375;28;20533;-82
2021/05/07 08:32:45;;;;;;;0.28;0.00;;;17.20;51.70;;;;;;5025926;28;20382;-82
2021/05/07 08:35:12;;;;;;;0.00;0.00;;;17.20;51.50;;;;;;5011869;28;20040;-80
2021/05/07 08:37:44;;;;;;;0.25;0.05;;;17.30;51.50;;;;;;5040497;28;20036;-82
2021/05/07 08:40:12;;;;;;;2.55;0.32;;;17.50;51.40;;;;;;5012096;28;20049;-82
2021/05/07 08:42:38;;;;;;;2.03;0.25;;;17.60;50.80;;;;;;5012158;28;20045;-82
2021/05/07 08:45:05;;;;;;;0.32;0.22;;;17.70;50.80;;;;;;4996372;28;20037;-82
2021/05/07 08:47:33;;;;;;;0.10;0.00;;;17.90;50.60;;;;;;5041664;28;20105;-82
2021/05/07 08:50:00;;;;;;;0.05;0.00;;;17.80;49.90;;;;;;5010760;28;20030;-82
2021/05/07 08:52:26;;;;;;;0.63;0.10;;;17.70;50.20;;;;;;4993295;28;20041;-82
2021/05/07 08:54:52;;;;;;;0.20;0.10;;;17.70;50.20;;;;;;5029494;28;20034;-82
2021/05/07 08:57:18;;;;;;;1.13;0.10;;;17.60;50.00;;;;;;5044029;28;20038;-82
2021/05/07 08:59:45;;;;;;;0.10;0.00;;;17.60;50.10;;;;;;5024894;28;20056;-82
2021/05/07 09:02:22;;;;;;;0.10;0.00;;;17.80;50.10;;;;;;5009726;28;20052;-82
2021/05/07 09:04:53;;;;;;;0.10;0.00;;;18.00;50.00;;;;;;5021747;28;20038;-82
2021/05/07 09:07:19;;;;;;;0.80;0.10;;;18.20;49.60;;;;;;5011547;28;20391;-82
2021/05/07 09:09:54;;;;;;;0.00;0.00;;;18.40;49.50;;;;;;5011655;28;20525;-81
2021/05/07 09:12:28;;;;;;;5.57;0.20;;;18.60;49.30;;;;;;5000752;28;20031;-82
2021/05/07 09:14:55;;;;;;;0.30;0.05;;;18.90;49.10;;;;;;5009152;28;20018;-82
2021/05/07 09:17:22;;;;;;;0.32;0.10;;;19.20;48.80;;;;;;5009204;28;20491;-81
2021/05/07 09:19:48;;;;;;;1.05;0.20;;;19.50;48.60;;;;;;5009957;28;20033;-82
2021/05/07 09:22:24;;;;;;;0.60;0.10;;;19.70;48.30;;;;;;5008987;28;20041;-82
2021/05/07 09:25:01;;;;;;;0.00;0.00;;;20.00;47.90;;;;;;4992722;28;20045;-82
2021/05/07 09:27:27;;;;;;;0.20;0.10;;;20.20;47.80;;;;;;4996106;28;20027;-82
2021/05/07 09:29:53;;;;;;;0.13;0.00;;;20.30;47.70;;;;;;5013689;28;20030;-85
2021/05/07 09:32:30;;;;;;;0.85;0.10;;;20.40;47.50;;;;;;5010491;28;20049;-85
2021/05/07 09:35:11;;;;;;;0.00;0.00;;;20.50;47.40;;;;;;5010829;28;20475;-84
2021/05/07 09:37:37;;;;;;;1.10;0.15;;;20.50;47.30;;;;;;4992233;28;20042;-84
2021/05/07 09:40:15;;;;;;;0.77;0.15;;;20.50;47.50;;;;;;5031711;28;20034;-89
2021/05/07 09:42:41;;;;;;;0.73;0.10;;;20.40;47.40;;;;;;4992416;28;20038;-81
2021/05/07 09:45:18;;;;;;;0.17;0.03;;;20.30;47.60;;;;;;5007315;28;20391;-79
2021/05/07 09:47:47;;;;;;;0.30;0.10;;;20.20;47.60;;;;;;5016710;28;20045;-81
2021/05/07 09:50:13;;;;;;;0.75;0.10;;;20.20;47.50;;;;;;5010403;28;20033;-81
2021/05/07 09:52:39;;;;;;;0.40;0.00;;;20.30;47.40;;;;;;5006067;28;20426;-81
2021/05/07 09:55:07;;;;;;;0.25;0.00;;;20.30;47.30;;;;;;5011752;28;20033;-81
2021/05/07 09:57:34;;;;;;;0.17;0.00;;;20.30;47.30;;;;;;5010659;28;20029;-80
2021/05/07 10:00:01;;;;;;;0.10;0.00;;;20.30;47.20;;;;;;4995462;28;20042;-82
2021/05/07 10:02:27;;;;;;;0.00;0.00;;;20.20;46.10;;;;;;5004450;28;20489;-82
2021/05/07 10:04:53;;;;;;;0.00;0.00;;;19.90;46.40;;;;;;5009910;28;20025;-83
2021/05/07 10:07:19;;;;;;;0.15;0.00;;;19.80;46.50;;;;;;5009940;28;20041;-79
2021/05/07 10:09:45;;;;;;;0.20;0.03;;;19.70;46.50;;;;;;5009510;28;20026;-81
2021/05/07 10:12:11;;;;;;;0.60;0.20;;;19.70;46.50;;;;;;4993646;28;20041;-82
2021/05/07 10:14:43;;;;;;;0.45;0.20;;;19.80;46.50;;;;;;5040099;28;20046;-79
2021/05/07 10:17:10;;;;;;;0.00;0.00;;;20.00;46.30;;;;;;5008707;28;20037;-82
2021/05/07 10:19:44;;;;;;;0.13;0.00;;;20.20;45.70;;;;;;5008884;28;20074;-82
2021/05/07 10:22:11;;;;;;;0.00;0.00;;;20.20;45.30;;;;;;5007978;28;20510;-81
2021/05/07 10:24:42;;;;;;;0.05;0.00;;;20.00;45.30;;;;;;5010976;28;20398;-83
2021/05/07 10:27:18;;;;;;;0.95;0.17;;;19.80;45.20;;;;;;5009856;28;20044;-84
2021/05/07 10:29:57;;;;;;;0.10;0.00;;;19.70;45.30;;;;;;5011806;28;20434;-80
2021/05/07 10:32:56;;;;;;;0.00;0.00;;;19.60;45.20;;;;;;5007580;28;20041;-80
2021/05/07 10:35:29;;;;;;;0.73;0.30;;;19.50;44.90;;;;;;5018564;28;20127;-81
2021/05/07 10:38:05;;;;;;;0.10;0.00;;;19.50;44.50;;;;;;5017217;28;20041;-81
2021/05/07 10:40:32;;;;;;;0.22;0.00;;;19.40;44.50;;;;;;5009080;28;20502;-81
2021/05/07 10:42:58;;;;;;;0.13;0.00;;;19.40;44.50;;;;;;5009577;28;20495;-80
2021/05/07 10:45:44;;;;;;;0.40;0.20;;;19.40;44.50;;;;;;4989267;28;20472;-82
2021/05/07 10:48:17;;;;;;;0.22;0.00;;;19.50;44.30;;;;;;5007862;28;20025;-85
2021/05/07 10:50:45;;;;;;;0.08;0.00;;;19.60;44.00;;;;;;5027869;28;20031;-85
2021/05/07 10:53:11;;;;;;;0.05;0.00;;;19.70;43.80;;;;;;5006871;28;20411;-86
2021/05/07 10:55:37;;;;;;;0.00;0.00;;;19.70;43.70;;;;;;4977348;28;20042;-84
2021/05/07 10:58:05;;;;;;;1.35;0.20;;;19.60;43.70;;;;;;5008862;28;20034;-84
2021/05/07 11:00:39;;;;;;;0.20;0.00;;;19.60;43.90;;;;;;5006472;28;22384;-84
2021/05/07 11:03:05;;;;;;;0.13;0.00;;;19.70;43.80;;;;;;4974965;28;20046;-85
2021/05/07 11:05:52;;;;;;;1.55;0.10;;;19.80;43.80;;;;;;5010929;28;20026;-84
2021/05/07 11:08:21;;;;;;;0.00;0.00;;;20.00;43.60;;;;;;5006920;28;20058;-85
2021/05/07 11:10:47;;;;;;;1.48;0.00;;;20.30;43.40;;;;;;5013875;28;20041;-84
2021/05/07 11:13:13;;;;;;;1.85;0.10;;;20.50;43.30;;;;;;5010393;28;20018;-84
2021/05/07 11:15:40;;;;;;;0.10;0.00;;;20.70;43.00;;;;;;5023368;28;20030;-82
2021/05/07 11:18:08;;;;;;;0.40;0.00;;;21.00;42.80;;;;;;5009955;28;20018;-84
2021/05/07 11:20:36;;;;;;;0.20;0.00;;;21.10;42.70;;;;;;5033923;28;20030;-83
2021/05/07 11:23:03;;;;;;;0.00;0.00;;;21.30;42.50;;;;;;5008195;28;20042;-84
2021/05/07 11:25:30;;;;;;;0.10;0.00;;;21.20;42.40;;;;;;5008049;28;20274;-81
2021/05/07 11:27:59;;;;;;;0.57;0.10;;;21.10;42.60;;;;;;4986598;28;20038;-85
2021/05/07 11:30:25;;;;;;;0.10;0.00;;;21.20;42.70;;;;;;5007469;28;20045;-85
2021/05/07 11:32:51;;;;;;;0.13;0.00;;;21.30;42.60;;;;;;5027795;28;20039;-86
2021/05/07 11:35:17;;;;;;;0.88;0.00;;;21.20;42.50;;;;;;5007539;28;20033;-87
2021/05/07 11:37:44;;;;;;;0.05;0.00;;;21.30;42.50;;;;;;5007437;28;20033;-87
2021/05/07 11:40:11;;;;;;;0.22;0.00;;;21.40;42.50;;;;;;5009499;28;20030;-86
2021/05/07 11:42:40;;;;;;;0.40;0.00;;;21.30;42.50;;;;;;5010199;28;20034;-85
2021/05/07 11:45:07;;;;;;;0.00;0.00;;;21.30;42.50;;;;;;5005838;28;20031;-85
2021/05/07 11:47:35;;;;;;;0.40;0.20;;;21.40;42.50;;;;;;5008508;28;20049;-86
2021/05/07 11:50:01;;;;;;;0.20;0.00;;;21.40;42.30;;;;;;4988057;28;20034;-85
2021/05/07 11:52:37;;;;;;;0.40;0.10;;;21.30;42.30;;;;;;5017359;28;20391;-84
2021/05/07 11:55:11;;;;;;;0.00;0.00;;;21.20;42.40;;;;;;4997538;28;20046;-84
2021/05/07 11:57:37;;;;;;;0.10;0.00;;;21.10;42.40;;;;;;5007945;28;20060;-84
2021/05/07 12:00:04;;;;;;;0.30;0.15;;;20.80;42.30;;;;;;4993096;28;20025;-83
2021/05/07 12:02:32;;;;;;;0.00;0.00;;;20.50;42.40;;;;;;5021122;28;20399;-84
2021/05/07 12:04:58;;;;;;;0.20;0.00;;;20.30;42.50;;;;;;5008531;28;20026;-85
2021/05/07 12:07:29;;;;;;;0.00;0.00;;;20.30;42.60;;;;;;5008460;28;20577;-84
2021/05/07 12:09:55;;;;;;;4.32;0.15;;;20.50;42.50;;;;;;5009080;28;20394;-84
2021/05/07 12:12:22;;;;;;;0.20;0.00;;;20.70;42.10;;;;;;4992161;28;20034;-83
2021/05/07 12:14:49;;;;;;;0.08;0.00;;;20.80;41.90;;;;;;5038561;28;20033;-84
2021/05/07 12:17:19;;;;;;;0.10;0.00;;;20.90;41.30;;;;;;5008436;28;20073;-84
2021/05/07 12:20:02;;;;;;;0.20;0.00;;;20.80;41.20;;;;;;5010610;28;20026;-84
2021/05/07 12:22:28;;;;;;;0.13;0.10;;;20.60;41.50;;;;;;5011734;28;20042;-83
2021/05/07 12:25:06;;;;;;;1.15;0.13;;;20.70;41.60;;;;;;5012076;28;20026;-84
2021/05/07 12:27:32;;;;;;;0.10;0.00;;;20.90;41.60;;;;;;5013181;28;20049;-85
2021/05/07 12:29:58;;;;;;;0.10;0.00;;;21.10;41.50;;;;;;5014312;28;20030;-84
2021/05/07 12:32:24;;;;;;;0.10;0.00;;;21.30;41.40;;;;;;5009951;28;20041;-83
2021/05/07 12:35:00;;;;;;;0.60;0.10;;;21.50;41.20;;;;;;5012283;28;20520;-83
2021/05/07 12:37:37;;;;;;;0.32;0.20;;;21.70;41.10;;;;;;5010899;28;20049;-83
2021/05/07 12:40:04;;;;;;;0.20;0.20;;;21.90;40.90;;;;;;5012386;28;20030;-84
2021/05/07 12:42:30;;;;;;;0.17;0.00;;;21.90;40.90;;;;;;5011051;28;20406;-83
2021/05/07 12:44:56;;;;;;;1.65;0.05;;;22.00;40.80;;;;;;5014313;28;20034;-82
2021/05/07 12:47:22;;;;;;;0.00;0.00;;;21.90;40.80;;;;;;5018208;28;20045;-83
2021/05/07 12:49:48;;;;;;;0.85;0.22;;;21.80;41.00;;;;;;5009766;28;20030;-83
2021/05/07 12:52:14;;;;;;;0.65;0.30;;;21.70;41.00;;;;;;5009547;28;20053;-83